sensor_id;sensor_type;location;lat;lon;timestamp;P1;P2;P0
51320;PMS5003;38732;49.556;6.286;2022-08-18T00:02:28;16.00;16.00;10.00
51320;PMS5003;38732;49.556;6.286;2022-08-18T00:04:59;18.40;14.80;10.00
51320;PMS5003;38732;49.556;6.286;2022-08-18T00:07:30;18.20;15.80;9.00
51320;PMS5003;38732;49.556;6.286;2022-08-18T00:10:00;22.80;19.60;10.20
51320;PMS5003;38732;49.556;6.286;2022-08-18T00:12:32;17.40;15.80;10.00
51320;PMS5003;38732;49.556;6.286;2022-08-18T00:15:04;17.40;17.00;10.20
51320;PMS5003;38732;49.556;6.286;2022-08-18T00:17:35;15.20;14.60;10.00
51320;PMS5003;38732;49.556;6.286;2022-08-18T00:20:05;17.80;16.20;10.80
51320;PMS5003;38732;49.556;6.286;2022-08-18T00:22:36;19.60;16.60;10.60
51320;PMS5003;38732;49.556;6.286;2022-08-18T00:25:05;23.75;19.50;11.50
51320;PMS5003;38732;49.556;6.286;2022-08-18T00:27:34;19.20;14.80;8.80
51320;PMS5003;38732;49.556;6.286;2022-08-18T00:30:04;16.00;14.75;10.25
51320;PMS5003;38732;49.556;6.286;2022-08-18T00:32:38;20.80;18.60;10.00
51320;PMS5003;38732;49.556;6.286;2022-08-18T00:35:13;21.60;18.60;11.20
51320;PMS5003;38732;49.556;6.286;2022-08-18T00:37:47;17.00;17.00;10.00
51320;PMS5003;38732;49.556;6.286;2022-08-18T00:40:18;19.75;16.25;10.00
51320;PMS5003;38732;49.556;6.286;2022-08-18T00:42:51;13.40;13.40;9.80
51320;PMS5003;38732;49.556;6.286;2022-08-18T00:45:22;25.80;19.80;11.80
51320;PMS5003;38732;49.556;6.286;2022-08-18T00:47:53;18.20;17.20;12.00
51320;PMS5003;38732;49.556;6.286;2022-08-18T00:50:23;20.50;19.00;11.50
51320;PMS5003;38732;49.556;6.286;2022-08-18T00:52:59;19.00;15.60;8.80
51320;PMS5003;38732;49.556;6.286;2022-08-18T00:55:32;22.60;18.60;12.60
51320;PMS5003;38732;49.556;6.286;2022-08-18T00:58:03;18.60;18.60;10.00
51320;PMS5003;38732;49.556;6.286;2022-08-18T01:00:36;18.60;17.00;10.80
51320;PMS5003;38732;49.556;6.286;2022-08-18T01:03:08;17.20;16.60;12.20
51320;PMS5003;38732;49.556;6.286;2022-08-18T01:05:44;21.80;18.60;10.80
51320;PMS5003;38732;49.556;6.286;2022-08-18T01:08:17;18.80;15.60;10.40
51320;PMS5003;38732;49.556;6.286;2022-08-18T01:10:45;22.00;19.25;11.00
51320;PMS5003;38732;49.556;6.286;2022-08-18T01:13:14;11.25;7.00;0.00
51320;PMS5003;38732;49.556;6.286;2022-08-18T01:15:43;29.50;23.75;14.00
51320;PMS5003;38732;49.556;6.286;2022-08-18T01:18:12;22.00;18.00;11.50
51320;PMS5003;38732;49.556;6.286;2022-08-18T01:20:47;19.60;17.80;12.00
51320;PMS5003;38732;49.556;6.286;2022-08-18T01:23:35;22.60;17.40;11.00
51320;PMS5003;38732;49.556;6.286;2022-08-18T01:26:04;19.40;18.00;10.00
51320;PMS5003;38732;49.556;6.286;2022-08-18T01:28:34;15.50;15.25;10.50
51320;PMS5003;38732;49.556;6.286;2022-08-18T01:31:05;18.40;17.60;11.60
51320;PMS5003;38732;49.556;6.286;2022-08-18T01:33:36;17.60;17.60;11.40
51320;PMS5003;38732;49.556;6.286;2022-08-18T01:36:14;19.80;18.80;10.60
51320;PMS5003;38732;49.556;6.286;2022-08-18T01:38:46;21.60;19.60;13.00
51320;PMS5003;38732;49.556;6.286;2022-08-18T01:41:17;21.20;20.00;10.80
51320;PMS5003;38732;49.556;6.286;2022-08-18T01:43:47;20.00;17.20;10.40
51320;PMS5003;38732;49.556;6.286;2022-08-18T01:46:19;17.40;15.00;9.00
51320;PMS5003;38732;49.556;6.286;2022-08-18T01:48:48;17.00;14.20;10.20
51320;PMS5003;38732;49.556;6.286;2022-08-18T01:51:17;20.25;19.50;10.50
51320;PMS5003;38732;49.556;6.286;2022-08-18T01:53:45;11.00;9.75;5.50
51320;PMS5003;38732;49.556;6.286;2022-08-18T01:56:13;16.00;16.00;10.00
51320;PMS5003;38732;49.556;6.286;2022-08-18T01:58:42;20.00;17.00;10.25
51320;PMS5003;38732;49.556;6.286;2022-08-18T02:01:12;22.20;19.00;11.40
51320;PMS5003;38732;49.556;6.286;2022-08-18T02:03:43;19.80;19.20;11.00
51320;PMS5003;38732;49.556;6.286;2022-08-18T02:06:16;18.60;17.20;11.60
51320;PMS5003;38732;49.556;6.286;2022-08-18T02:08:45;20.00;17.80;12.00
51320;PMS5003;38732;49.556;6.286;2022-08-18T02:11:14;18.75;18.00;10.00
51320;PMS5003;38732;49.556;6.286;2022-08-18T02:13:42;23.75;20.00;14.50
51320;PMS5003;38732;49.556;6.286;2022-08-18T02:16:11;21.50;20.00;10.50
51320;PMS5003;38732;49.556;6.286;2022-08-18T02:18:39;21.75;19.50;9.75
51320;PMS5003;38732;49.556;6.286;2022-08-18T02:21:11;15.50;15.50;9.00
51320;PMS5003;38732;49.556;6.286;2022-08-18T02:23:42;20.00;17.80;12.60
51320;PMS5003;38732;49.556;6.286;2022-08-18T02:26:13;24.00;21.60;13.00
51320;PMS5003;38732;49.556;6.286;2022-08-18T02:28:43;17.40;17.00;12.80
51320;PMS5003;38732;49.556;6.286;2022-08-18T02:31:13;19.60;19.60;11.80
51320;PMS5003;38732;49.556;6.286;2022-08-18T02:33:44;22.80;20.40;13.80
51320;PMS5003;38732;49.556;6.286;2022-08-18T02:36:13;20.40;20.40;12.20
51320;PMS5003;38732;49.556;6.286;2022-08-18T02:38:42;20.40;20.00;13.00
51320;PMS5003;38732;49.556;6.286;2022-08-18T02:41:11;18.75;18.00;11.00
51320;PMS5003;38732;49.556;6.286;2022-08-18T02:43:41;16.60;16.60;10.00
51320;PMS5003;38732;49.556;6.286;2022-08-18T02:46:10;23.40;22.00;13.20
51320;PMS5003;38732;49.556;6.286;2022-08-18T02:48:38;19.50;18.25;12.00
51320;PMS5003;38732;49.556;6.286;2022-08-18T02:51:08;22.00;20.00;13.00
51320;PMS5003;38732;49.556;6.286;2022-08-18T02:53:43;19.40;17.80;10.60
51320;PMS5003;38732;49.556;6.286;2022-08-18T02:56:17;20.60;20.60;14.40
51320;PMS5003;38732;49.556;6.286;2022-08-18T02:58:48;21.20;21.20;14.00
51320;PMS5003;38732;49.556;6.286;2022-08-18T03:01:22;22.40;19.60;12.60
51320;PMS5003;38732;49.556;6.286;2022-08-18T03:03:54;22.20;20.20;12.20
51320;PMS5003;38732;49.556;6.286;2022-08-18T03:06:25;25.20;23.40;12.00
51320;PMS5003;38732;49.556;6.286;2022-08-18T03:08:54;22.00;20.60;12.60
51320;PMS5003;38732;49.556;6.286;2022-08-18T03:11:27;20.00;20.00;13.00
51320;PMS5003;38732;49.556;6.286;2022-08-18T03:13:56;15.80;14.20;9.60
51320;PMS5003;38732;49.556;6.286;2022-08-18T03:16:24;20.00;18.00;10.50
51320;PMS5003;38732;49.556;6.286;2022-08-18T03:18:53;25.20;22.80;14.00
51320;PMS5003;38732;49.556;6.286;2022-08-18T03:21:22;22.75;22.75;13.75
51320;PMS5003;38732;49.556;6.286;2022-08-18T03:23:53;23.80;21.60;14.00
51320;PMS5003;38732;49.556;6.286;2022-08-18T03:26:23;23.00;20.40;11.80
51320;PMS5003;38732;49.556;6.286;2022-08-18T03:28:52;26.40;25.40;13.80
51320;PMS5003;38732;49.556;6.286;2022-08-18T03:31:23;24.80;23.00;14.00
51320;PMS5003;38732;49.556;6.286;2022-08-18T03:33:52;27.00;25.00;14.40
51320;PMS5003;38732;49.556;6.286;2022-08-18T03:36:22;26.60;26.20;16.00
51320;PMS5003;38732;49.556;6.286;2022-08-18T03:38:52;29.80;27.40;14.80
51320;PMS5003;38732;49.556;6.286;2022-08-18T03:41:21;25.25;22.50;14.00
51320;PMS5003;38732;49.556;6.286;2022-08-18T03:43:52;20.00;20.00;13.20
51320;PMS5003;38732;49.556;6.286;2022-08-18T03:46:21;23.00;22.00;13.75
51320;PMS5003;38732;49.556;6.286;2022-08-18T03:48:50;28.40;26.60;14.20
51320;PMS5003;38732;49.556;6.286;2022-08-18T03:51:20;25.50;21.50;13.00
51320;PMS5003;38732;49.556;6.286;2022-08-18T03:53:54;22.20;20.00;14.00
51320;PMS5003;38732;49.556;6.286;2022-08-18T03:56:24;28.00;24.80;13.40
51320;PMS5003;38732;49.556;6.286;2022-08-18T03:58:56;24.00;19.80;12.40
51320;PMS5003;38732;49.556;6.286;2022-08-18T04:01:27;22.60;21.00;11.80
51320;PMS5003;38732;49.556;6.286;2022-08-18T04:04:01;25.40;22.00;13.20
51320;PMS5003;38732;49.556;6.286;2022-08-18T04:06:35;22.60;21.00;13.00
51320;PMS5003;38732;49.556;6.286;2022-08-18T04:09:06;24.20;21.40;13.80
51320;PMS5003;38732;49.556;6.286;2022-08-18T04:11:36;22.20;19.40;13.00
51320;PMS5003;38732;49.556;6.286;2022-08-18T04:14:06;24.40;23.00;16.40
51320;PMS5003;38732;49.556;6.286;2022-08-18T04:16:34;21.25;19.50;12.00
51320;PMS5003;38732;49.556;6.286;2022-08-18T04:19:03;25.00;24.25;15.00
51320;PMS5003;38732;49.556;6.286;2022-08-18T04:21:34;29.00;25.00;16.00
51320;PMS5003;38732;49.556;6.286;2022-08-18T04:24:04;30.20;27.60;15.00
51320;PMS5003;38732;49.556;6.286;2022-08-18T04:26:35;24.00;23.80;14.80
51320;PMS5003;38732;49.556;6.286;2022-08-18T04:29:05;27.80;26.80;15.20
51320;PMS5003;38732;49.556;6.286;2022-08-18T04:31:35;26.60;23.20;14.80
51320;PMS5003;38732;49.556;6.286;2022-08-18T04:34:04;23.25;23.25;14.75
51320;PMS5003;38732;49.556;6.286;2022-08-18T04:36:34;26.00;26.00;16.60
51320;PMS5003;38732;49.556;6.286;2022-08-18T04:39:04;24.40;23.00;14.60
51320;PMS5003;38732;49.556;6.286;2022-08-18T04:41:35;22.80;21.40;11.60
51320;PMS5003;38732;49.556;6.286;2022-08-18T04:44:06;22.80;21.60;12.80
51320;PMS5003;38732;49.556;6.286;2022-08-18T04:46:37;27.20;23.60;14.60
51320;PMS5003;38732;49.556;6.286;2022-08-18T04:49:10;26.20;24.60;13.80
51320;PMS5003;38732;49.556;6.286;2022-08-18T04:51:40;29.75;26.50;14.50
51320;PMS5003;38732;49.556;6.286;2022-08-18T04:54:10;26.20;24.00;13.80
51320;PMS5003;38732;49.556;6.286;2022-08-18T04:56:38;30.25;24.50;13.50
51320;PMS5003;38732;49.556;6.286;2022-08-18T04:59:08;27.00;27.00;14.00
51320;PMS5003;38732;49.556;6.286;2022-08-18T05:01:41;21.20;20.40;9.40
51320;PMS5003;38732;49.556;6.286;2022-08-18T05:04:11;24.40;21.40;13.40
51320;PMS5003;38732;49.556;6.286;2022-08-18T05:06:41;21.80;21.40;12.00
51320;PMS5003;38732;49.556;6.286;2022-08-18T05:09:12;28.40;27.80;14.80
51320;PMS5003;38732;49.556;6.286;2022-08-18T05:11:42;30.20;26.60;15.80
51320;PMS5003;38732;49.556;6.286;2022-08-18T05:14:10;27.00;27.00;16.00
51320;PMS5003;38732;49.556;6.286;2022-08-18T05:16:39;28.00;26.25;16.75
51320;PMS5003;38732;49.556;6.286;2022-08-18T05:19:08;29.50;27.00;16.50
51320;PMS5003;38732;49.556;6.286;2022-08-18T05:21:37;27.60;23.60;13.40
51320;PMS5003;38732;49.556;6.286;2022-08-18T05:24:06;30.25;27.00;18.00
51320;PMS5003;38732;49.556;6.286;2022-08-18T05:26:35;33.20;30.20;16.80
51320;PMS5003;38732;49.556;6.286;2022-08-18T05:29:04;28.50;24.25;16.25
51320;PMS5003;38732;49.556;6.286;2022-08-18T05:31:32;24.75;24.00;14.50
51320;PMS5003;38732;49.556;6.286;2022-08-18T05:34:01;28.00;25.75;14.25
51320;PMS5003;38732;49.556;6.286;2022-08-18T05:39:26;31.20;28.20;15.00
51320;PMS5003;38732;49.556;6.286;2022-08-18T05:42:14;28.60;26.00;17.60
51320;PMS5003;38732;49.556;6.286;2022-08-18T05:44:49;30.80;29.20;19.00
51320;PMS5003;38732;49.556;6.286;2022-08-18T05:49:51;27.80;24.60;15.40
51320;PMS5003;38732;49.556;6.286;2022-08-18T05:52:26;25.20;25.20;17.20
51320;PMS5003;38732;49.556;6.286;2022-08-18T05:58:18;25.80;25.20;13.80
51320;PMS5003;38732;49.556;6.286;2022-08-18T06:00:51;30.00;27.80;15.80
51320;PMS5003;38732;49.556;6.286;2022-08-18T06:03:28;27.80;25.40;13.60
51320;PMS5003;38732;49.556;6.286;2022-08-18T06:06:04;32.20;26.80;15.80
51320;PMS5003;38732;49.556;6.286;2022-08-18T06:08:41;26.80;25.20;14.40
51320;PMS5003;38732;49.556;6.286;2022-08-18T06:11:13;25.00;25.00;13.60
51320;PMS5003;38732;49.556;6.286;2022-08-18T06:13:42;28.50;27.25;16.25
51320;PMS5003;38732;49.556;6.286;2022-08-18T06:16:13;30.00;26.50;15.75
51320;PMS5003;38732;49.556;6.286;2022-08-18T06:30:06;30.80;26.60;14.80
51320;PMS5003;38732;49.556;6.286;2022-08-18T06:40:59;31.20;30.40;20.00
51320;PMS5003;38732;49.556;6.286;2022-08-18T06:49:31;37.20;31.60;16.20
51320;PMS5003;38732;49.556;6.286;2022-08-18T06:55:10;28.80;28.40;19.60
51320;PMS5003;38732;49.556;6.286;2022-08-18T06:57:56;38.20;33.80;21.20
51320;PMS5003;38732;49.556;6.286;2022-08-18T07:00:31;29.60;25.20;13.80
51320;PMS5003;38732;49.556;6.286;2022-08-18T07:03:11;33.60;30.80;15.80
51320;PMS5003;38732;49.556;6.286;2022-08-18T07:08:38;35.80;30.60;15.80
51320;PMS5003;38732;49.556;6.286;2022-08-18T07:13:46;30.20;28.80;18.00
51320;PMS5003;38732;49.556;6.286;2022-08-18T07:16:37;31.00;30.40;19.40
51320;PMS5003;38732;49.556;6.286;2022-08-18T07:19:15;35.00;30.20;17.80
51320;PMS5003;38732;49.556;6.286;2022-08-18T07:21:46;31.40;28.40;19.00
51320;PMS5003;38732;49.556;6.286;2022-08-18T07:24:31;36.40;33.40;20.80
51320;PMS5003;38732;49.556;6.286;2022-08-18T07:27:07;33.60;31.00;19.00
51320;PMS5003;38732;49.556;6.286;2022-08-18T07:30:00;29.00;26.20;15.20
51320;PMS5003;38732;49.556;6.286;2022-08-18T07:35:41;32.40;30.60;16.60
51320;PMS5003;38732;49.556;6.286;2022-08-18T07:41:04;22.60;22.60;11.40
51320;PMS5003;38732;49.556;6.286;2022-08-18T07:46:20;29.40;28.00;18.80
51320;PMS5003;38732;49.556;6.286;2022-08-18T07:48:55;29.00;25.00;15.80
51320;PMS5003;38732;49.556;6.286;2022-08-18T07:51:27;24.75;24.25;11.00
51320;PMS5003;38732;49.556;6.286;2022-08-18T08:08:15;33.60;32.20;19.40
51320;PMS5003;38732;49.556;6.286;2022-08-18T08:10:54;34.80;33.00;18.00
51320;PMS5003;38732;49.556;6.286;2022-08-18T08:16:49;26.20;24.60;13.60
51320;PMS5003;38732;49.556;6.286;2022-08-18T08:24:46;35.20;32.00;18.80
51320;PMS5003;38732;49.556;6.286;2022-08-18T08:27:25;36.60;32.40;18.40
51320;PMS5003;38732;49.556;6.286;2022-08-18T08:32:36;37.40;33.00;19.20
51320;PMS5003;38732;49.556;6.286;2022-08-18T08:35:24;33.40;31.40;18.20
51320;PMS5003;38732;49.556;6.286;2022-08-18T08:38:07;35.80;32.40;19.40
51320;PMS5003;38732;49.556;6.286;2022-08-18T08:40:45;34.80;34.00;17.40
51320;PMS5003;38732;49.556;6.286;2022-08-18T08:43:17;33.80;30.80;16.20
51320;PMS5003;38732;49.556;6.286;2022-08-18T08:48:50;27.60;27.20;15.80
51320;PMS5003;38732;49.556;6.286;2022-08-18T08:51:40;31.40;27.00;14.60
51320;PMS5003;38732;49.556;6.286;2022-08-18T08:54:16;30.80;30.00;18.80
51320;PMS5003;38732;49.556;6.286;2022-08-18T08:56:50;27.40;27.40;19.60
51320;PMS5003;38732;49.556;6.286;2022-08-18T08:59:22;31.80;31.80;20.20
51320;PMS5003;38732;49.556;6.286;2022-08-18T09:04:46;32.20;31.60;16.80
51320;PMS5003;38732;49.556;6.286;2022-08-18T09:08:05;35.40;33.20;20.80
51320;PMS5003;38732;49.556;6.286;2022-08-18T09:10:23;29.60;29.00;17.20
51320;PMS5003;38732;49.556;6.286;2022-08-18T09:14:03;42.80;35.00;20.40
51320;PMS5003;38732;49.556;6.286;2022-08-18T09:22:09;30.40;28.40;16.40
51320;PMS5003;38732;49.556;6.286;2022-08-18T09:24:47;28.40;26.60;15.00
51320;PMS5003;38732;49.556;6.286;2022-08-18T09:30:35;32.20;27.20;16.00
51320;PMS5003;38732;49.556;6.286;2022-08-18T09:33:19;32.40;31.20;18.00
51320;PMS5003;38732;49.556;6.286;2022-08-18T09:41:29;28.80;28.60;15.00
51320;PMS5003;38732;49.556;6.286;2022-08-18T09:44:08;31.60;30.20;17.80
51320;PMS5003;38732;49.556;6.286;2022-08-18T09:49:52;37.20;35.60;17.80
51320;PMS5003;38732;49.556;6.286;2022-08-18T09:55:38;38.20;34.20;19.20
51320;PMS5003;38732;49.556;6.286;2022-08-18T09:58:19;35.40;32.00;18.40
51320;PMS5003;38732;49.556;6.286;2022-08-18T10:06:45;31.80;29.00;18.40
51320;PMS5003;38732;49.556;6.286;2022-08-18T10:09:19;28.20;23.00;15.40
51320;PMS5003;38732;49.556;6.286;2022-08-18T10:23:02;26.80;25.80;15.20
51320;PMS5003;38732;49.556;6.286;2022-08-18T10:25:35;26.00;25.75;15.75
51320;PMS5003;38732;49.556;6.286;2022-08-18T10:28:10;24.60;23.00;14.00
51320;PMS5003;38732;49.556;6.286;2022-08-18T10:31:16;25.40;22.40;14.60
51320;PMS5003;38732;49.556;6.286;2022-08-18T10:39:20;27.60;25.20;15.80
51320;PMS5003;38732;49.556;6.286;2022-08-18T10:42:05;23.80;23.40;16.60
51320;PMS5003;38732;49.556;6.286;2022-08-18T10:44:40;21.80;20.60;13.20
51320;PMS5003;38732;49.556;6.286;2022-08-18T10:47:21;22.00;19.80;11.40
51320;PMS5003;38732;49.556;6.286;2022-08-18T10:49:51;18.80;18.40;12.80
51320;PMS5003;38732;49.556;6.286;2022-08-18T10:52:30;18.00;17.50;11.00
51320;PMS5003;38732;49.556;6.286;2022-08-18T11:03:35;25.20;23.80;14.20
51320;PMS5003;38732;49.556;6.286;2022-08-18T11:06:24;28.20;26.00;15.80
51320;PMS5003;38732;49.556;6.286;2022-08-18T11:08:59;22.00;22.00;15.00
51320;PMS5003;38732;49.556;6.286;2022-08-18T11:11:33;34.00;29.00;15.20
51320;PMS5003;38732;49.556;6.286;2022-08-18T11:19:29;21.60;18.40;13.00
51320;PMS5003;38732;49.556;6.286;2022-08-18T11:22:05;27.60;24.60;15.40
51320;PMS5003;38732;49.556;6.286;2022-08-18T11:24:47;10.60;9.60;0.00
51320;PMS5003;38732;49.556;6.286;2022-08-18T11:27:22;24.50;24.50;16.00
51320;PMS5003;38732;49.556;6.286;2022-08-18T11:29:52;25.40;24.60;14.80
51320;PMS5003;38732;49.556;6.286;2022-08-18T11:40:01;25.40;21.60;12.80
51320;PMS5003;38732;49.556;6.286;2022-08-18T11:42:33;26.00;22.40;13.80
51320;PMS5003;38732;49.556;6.286;2022-08-18T11:45:19;21.60;20.20;14.00
51320;PMS5003;38732;49.556;6.286;2022-08-18T11:48:00;25.60;24.20;15.80
51320;PMS5003;38732;49.556;6.286;2022-08-18T11:56:16;23.00;22.80;14.20
51320;PMS5003;38732;49.556;6.286;2022-08-18T12:07:09;20.00;20.00;12.80
51320;PMS5003;38732;49.556;6.286;2022-08-18T12:09:45;20.60;20.60;13.20
51320;PMS5003;38732;49.556;6.286;2022-08-18T12:12:18;21.60;21.00;12.00
51320;PMS5003;38732;49.556;6.286;2022-08-18T12:14:58;23.60;22.20;13.80
51320;PMS5003;38732;49.556;6.286;2022-08-18T12:17:40;19.20;17.20;10.00
51320;PMS5003;38732;49.556;6.286;2022-08-18T12:25:33;19.80;19.80;11.60
51320;PMS5003;38732;49.556;6.286;2022-08-18T12:28:01;21.50;21.00;13.25
51320;PMS5003;38732;49.556;6.286;2022-08-18T12:30:30;20.25;19.75;13.00
51320;PMS5003;38732;49.556;6.286;2022-08-18T12:32:58;19.75;19.75;13.25
51320;PMS5003;38732;49.556;6.286;2022-08-18T12:35:26;21.25;21.00;14.00
51320;PMS5003;38732;49.556;6.286;2022-08-18T12:37:54;15.75;13.25;7.00
51320;PMS5003;38732;49.556;6.286;2022-08-18T12:40:23;23.75;21.25;13.50
51320;PMS5003;38732;49.556;6.286;2022-08-18T12:42:51;16.00;15.00;10.25
51320;PMS5003;38732;49.556;6.286;2022-08-18T12:45:19;21.25;19.50;12.25
51320;PMS5003;38732;49.556;6.286;2022-08-18T12:47:49;16.80;16.80;11.00
51320;PMS5003;38732;49.556;6.286;2022-08-18T12:50:17;21.25;18.50;13.00
51320;PMS5003;38732;49.556;6.286;2022-08-18T12:52:45;20.00;18.75;12.00
51320;PMS5003;38732;49.556;6.286;2022-08-18T12:55:13;20.75;20.50;12.00
51320;PMS5003;38732;49.556;6.286;2022-08-18T12:57:42;20.00;19.00;11.50
51320;PMS5003;38732;49.556;6.286;2022-08-18T13:00:10;18.75;18.75;12.00
51320;PMS5003;38732;49.556;6.286;2022-08-18T13:02:39;19.00;19.00;12.50
51320;PMS5003;38732;49.556;6.286;2022-08-18T13:05:07;19.75;19.50;12.00
51320;PMS5003;38732;49.556;6.286;2022-08-18T13:07:36;20.25;19.00;12.25
51320;PMS5003;38732;49.556;6.286;2022-08-18T13:10:04;20.00;18.50;11.25
51320;PMS5003;38732;49.556;6.286;2022-08-18T13:12:33;15.00;15.00;11.00
51320;PMS5003;38732;49.556;6.286;2022-08-18T13:15:01;19.00;18.50;14.00
51320;PMS5003;38732;49.556;6.286;2022-08-18T13:17:30;20.00;20.00;13.00
51320;PMS5003;38732;49.556;6.286;2022-08-18T13:20:09;18.40;18.40;12.80
51320;PMS5003;38732;49.556;6.286;2022-08-18T13:22:40;17.80;17.60;11.40
51320;PMS5003;38732;49.556;6.286;2022-08-18T13:25:10;20.60;19.20;11.40
51320;PMS5003;38732;49.556;6.286;2022-08-18T13:27:41;18.80;18.20;13.00
51320;PMS5003;38732;49.556;6.286;2022-08-18T13:30:10;20.00;18.50;11.25
51320;PMS5003;38732;49.556;6.286;2022-08-18T13:32:41;14.80;14.80;10.00
51320;PMS5003;38732;49.556;6.286;2022-08-18T13:35:10;15.75;15.75;9.25
51320;PMS5003;38732;49.556;6.286;2022-08-18T13:37:38;18.75;16.75;10.25
51320;PMS5003;38732;49.556;6.286;2022-08-18T13:40:08;19.50;19.50;11.50
51320;PMS5003;38732;49.556;6.286;2022-08-18T13:42:46;18.40;18.40;10.60
51320;PMS5003;38732;49.556;6.286;2022-08-18T13:45:16;18.80;14.80;11.00
51320;PMS5003;38732;49.556;6.286;2022-08-18T13:47:48;21.20;17.00;12.00
51320;PMS5003;38732;49.556;6.286;2022-08-18T13:50:17;20.80;18.60;12.60
51320;PMS5003;38732;49.556;6.286;2022-08-18T13:52:45;19.25;18.75;13.75
51320;PMS5003;38732;49.556;6.286;2022-08-18T13:55:14;18.25;15.25;10.75
51320;PMS5003;38732;49.556;6.286;2022-08-18T13:57:44;21.60;19.80;12.60
51320;PMS5003;38732;49.556;6.286;2022-08-18T14:00:14;18.20;16.20;10.00
51320;PMS5003;38732;49.556;6.286;2022-08-18T14:02:45;22.20;19.20;10.80
51320;PMS5003;38732;49.556;6.286;2022-08-18T14:05:15;19.60;18.60;12.40
51320;PMS5003;38732;49.556;6.286;2022-08-18T14:07:43;20.50;18.25;10.75
51320;PMS5003;38732;49.556;6.286;2022-08-18T14:10:12;23.50;18.50;12.00
51320;PMS5003;38732;49.556;6.286;2022-08-18T14:12:41;16.40;15.40;10.60
51320;PMS5003;38732;49.556;6.286;2022-08-18T14:15:11;19.80;16.80;11.00
51320;PMS5003;38732;49.556;6.286;2022-08-18T14:17:42;15.40;15.40;10.00
51320;PMS5003;38732;49.556;6.286;2022-08-18T14:20:10;16.25;16.25;10.50
51320;PMS5003;38732;49.556;6.286;2022-08-18T14:22:39;18.00;18.00;10.00
51320;PMS5003;38732;49.556;6.286;2022-08-18T14:25:07;20.25;16.75;10.50
51320;PMS5003;38732;49.556;6.286;2022-08-18T14:27:36;22.00;17.00;11.00
51320;PMS5003;38732;49.556;6.286;2022-08-18T14:30:06;18.40;16.60;11.60
51320;PMS5003;38732;49.556;6.286;2022-08-18T14:32:38;19.60;18.20;11.80
51320;PMS5003;38732;49.556;6.286;2022-08-18T14:35:07;14.00;13.00;6.50
51320;PMS5003;38732;49.556;6.286;2022-08-18T14:37:37;18.20;17.40;9.60
51320;PMS5003;38732;49.556;6.286;2022-08-18T14:40:06;17.80;16.60;10.80
51320;PMS5003;38732;49.556;6.286;2022-08-18T14:42:36;18.00;18.00;10.80
51320;PMS5003;38732;49.556;6.286;2022-08-18T14:45:04;12.75;12.75;9.75
51320;PMS5003;38732;49.556;6.286;2022-08-18T14:47:36;18.40;16.60;12.00
51320;PMS5003;38732;49.556;6.286;2022-08-18T14:50:04;14.40;13.40;8.20
51320;PMS5003;38732;49.556;6.286;2022-08-18T14:52:33;17.00;16.00;10.00
51320;PMS5003;38732;49.556;6.286;2022-08-18T14:55:01;18.00;13.75;9.50
51320;PMS5003;38732;49.556;6.286;2022-08-18T14:57:29;17.75;17.25;11.00
51320;PMS5003;38732;49.556;6.286;2022-08-18T14:59:58;11.50;11.00;6.00
51320;PMS5003;38732;49.556;6.286;2022-08-18T15:02:26;21.75;17.50;10.25
51320;PMS5003;38732;49.556;6.286;2022-08-18T15:04:54;17.75;16.75;9.75
51320;PMS5003;38732;49.556;6.286;2022-08-18T15:07:23;17.25;16.25;11.75
51320;PMS5003;38732;49.556;6.286;2022-08-18T15:09:51;15.00;14.00;11.25
51320;PMS5003;38732;49.556;6.286;2022-08-18T15:12:19;17.25;15.75;9.50
51320;PMS5003;38732;49.556;6.286;2022-08-18T15:14:48;18.75;16.25;12.50
51320;PMS5003;38732;49.556;6.286;2022-08-18T15:17:16;14.75;14.75;10.25
51320;PMS5003;38732;49.556;6.286;2022-08-18T15:19:44;16.75;16.50;10.50
51320;PMS5003;38732;49.556;6.286;2022-08-18T15:22:12;13.50;13.00;7.25
51320;PMS5003;38732;49.556;6.286;2022-08-18T15:24:41;15.75;15.75;10.75
51320;PMS5003;38732;49.556;6.286;2022-08-18T15:27:09;15.25;15.25;11.00
51320;PMS5003;38732;49.556;6.286;2022-08-18T15:29:38;15.25;15.25;9.25
51320;PMS5003;38732;49.556;6.286;2022-08-18T15:32:06;17.25;17.25;11.25
51320;PMS5003;38732;49.556;6.286;2022-08-18T15:34:34;18.75;17.75;13.00
51320;PMS5003;38732;49.556;6.286;2022-08-18T15:37:03;15.75;14.25;10.25
51320;PMS5003;38732;49.556;6.286;2022-08-18T15:39:31;12.75;12.75;9.25
51320;PMS5003;38732;49.556;6.286;2022-08-18T15:41:59;19.00;17.25;12.00
51320;PMS5003;38732;49.556;6.286;2022-08-18T15:44:27;19.50;17.75;12.25
51320;PMS5003;38732;49.556;6.286;2022-08-18T15:46:56;17.50;16.00;11.25
51320;PMS5003;38732;49.556;6.286;2022-08-18T15:49:24;15.75;13.75;10.50
51320;PMS5003;38732;49.556;6.286;2022-08-18T15:51:52;10.50;10.50;6.50
51320;PMS5003;38732;49.556;6.286;2022-08-18T15:54:20;13.50;13.50;9.50
51320;PMS5003;38732;49.556;6.286;2022-08-18T15:56:49;16.00;16.00;11.25
51320;PMS5003;38732;49.556;6.286;2022-08-18T15:59:17;16.25;16.25;12.25
51320;PMS5003;38732;49.556;6.286;2022-08-18T16:01:45;17.25;16.50;12.00
51320;PMS5003;38732;49.556;6.286;2022-08-18T16:04:13;18.00;16.75;11.00
51320;PMS5003;38732;49.556;6.286;2022-08-18T16:06:42;20.00;20.00;11.25
51320;PMS5003;38732;49.556;6.286;2022-08-18T16:09:10;16.50;16.50;9.25
51320;PMS5003;38732;49.556;6.286;2022-08-18T16:11:39;17.75;15.00;10.00
51320;PMS5003;38732;49.556;6.286;2022-08-18T16:14:08;17.40;17.40;12.20
51320;PMS5003;38732;49.556;6.286;2022-08-18T16:16:36;17.75;17.75;11.50
51320;PMS5003;38732;49.556;6.286;2022-08-18T16:19:04;16.75;15.50;12.00
51320;PMS5003;38732;49.556;6.286;2022-08-18T16:21:33;22.75;21.75;13.00
51320;PMS5003;38732;49.556;6.286;2022-08-18T16:24:02;15.00;15.00;10.75
51320;PMS5003;38732;49.556;6.286;2022-08-18T16:26:30;15.25;15.25;10.00
51320;PMS5003;38732;49.556;6.286;2022-08-18T16:28:59;18.50;16.25;11.75
51320;PMS5003;38732;49.556;6.286;2022-08-18T16:31:27;15.50;13.75;8.75
51320;PMS5003;38732;49.556;6.286;2022-08-18T16:33:56;20.25;18.25;11.25
51320;PMS5003;38732;49.556;6.286;2022-08-18T16:36:24;16.50;15.25;10.00
51320;PMS5003;38732;49.556;6.286;2022-08-18T16:38:53;15.75;15.75;10.25
51320;PMS5003;38732;49.556;6.286;2022-08-18T16:41:22;17.40;17.40;11.20
51320;PMS5003;38732;49.556;6.286;2022-08-18T16:43:50;16.00;16.00;11.00
51320;PMS5003;38732;49.556;6.286;2022-08-18T16:46:20;15.50;13.75;8.75
51320;PMS5003;38732;49.556;6.286;2022-08-18T16:48:51;21.80;20.00;14.00
51320;PMS5003;38732;49.556;6.286;2022-08-18T16:51:24;16.00;14.40;9.60
51320;PMS5003;38732;49.556;6.286;2022-08-18T16:53:55;19.80;19.80;13.80
51320;PMS5003;38732;49.556;6.286;2022-08-18T16:56:24;20.00;18.75;11.50
51320;PMS5003;38732;49.556;6.286;2022-08-18T16:58:54;18.00;18.00;12.20
51320;PMS5003;38732;49.556;6.286;2022-08-18T17:01:23;16.75;16.00;11.00